createdAt,value
2018-08-09T03:01:02.544Z,0.00
2018-08-09T03:02:02.390Z,0.00
2018-08-09T03:03:02.613Z,0.00
2018-08-09T03:04:03.112Z,0.00
2018-08-09T03:05:03.153Z,0.00
2018-08-09T03:07:03.261Z,0.00
2018-08-09T03:08:04.208Z,0.00
2018-08-09T03:09:04.380Z,0.00
2018-08-09T03:10:03.792Z,0.00
2018-08-09T03:11:03.027Z,0.00
2018-08-09T03:12:02.046Z,0.00
2018-08-09T03:13:02.168Z,0.00
2018-08-09T03:14:02.349Z,0.00
2018-08-09T03:15:02.381Z,0.00
2018-08-09T03:16:02.679Z,0.00
2018-08-09T03:17:02.918Z,0.00
2018-08-09T03:18:03.148Z,0.00
2018-08-09T03:19:03.251Z,0.00
2018-08-09T03:20:03.444Z,0.00
2018-08-09T03:21:03.646Z,0.00
2018-08-09T03:22:03.850Z,0.00
2018-08-09T03:23:04.000Z,0.00
2018-08-09T03:24:04.253Z,0.00
2018-08-09T03:25:04.204Z,0.00
2018-08-09T03:26:04.503Z,0.00
2018-08-09T03:27:04.740Z,4.00
2018-08-09T03:28:04.911Z,4.00
2018-08-09T03:29:05.014Z,0.00
2018-08-09T03:30:05.259Z,4.00
2018-08-09T03:31:05.356Z,4.00
2018-08-09T03:32:05.583Z,4.00
2018-08-09T03:33:05.885Z,4.00
2018-08-09T03:34:06.239Z,4.00
2018-08-09T03:35:06.331Z,8.00
2018-08-09T03:36:06.514Z,8.00
2018-08-09T03:37:06.696Z,12.00
2018-08-09T03:38:06.865Z,12.00
2018-08-09T03:39:07.042Z,16.00
2018-08-09T03:40:07.318Z,16.00
2018-08-09T03:41:07.141Z,24.00
2018-08-09T03:42:07.531Z,24.00
2018-08-09T03:43:07.879Z,28.00
2018-08-09T03:45:08.141Z,36.00
2018-08-09T03:46:08.163Z,40.00
2018-08-09T03:47:08.300Z,48.00
2018-08-09T03:49:08.625Z,64.00
2018-08-09T03:50:08.981Z,72.00
2018-08-09T03:51:09.161Z,84.00
2018-08-09T03:54:09.604Z,116.00
2018-08-09T04:01:10.531Z,200.00
2018-08-09T04:01:18.881Z,224.00
2018-08-09T04:02:18.698Z,240.00
2018-08-09T04:04:34.788Z,264.00
2018-08-09T04:05:48.002Z,308.00
2018-08-09T04:07:51.226Z,356.00
2018-08-09T04:08:49.236Z,384.00
2018-08-09T04:12:04.106Z,464.00
2018-08-09T04:13:06.286Z,492.00
2018-08-09T04:14:13.850Z,516.00
2018-08-09T04:15:07.510Z,544.00
2018-08-09T04:16:08.978Z,572.00
2018-08-09T04:17:06.101Z,596.00
2018-08-09T04:18:06.866Z,624.00
2018-08-09T04:19:10.891Z,656.00
2018-08-09T04:20:05.756Z,680.00
2018-08-09T04:22:14.799Z,740.00
2018-08-09T04:23:04.072Z,768.00
2018-08-09T04:24:04.067Z,792.00
2018-08-09T04:25:04.039Z,824.00
2018-08-09T04:26:25.996Z,856.00
2018-08-09T04:29:21.765Z,956.00
2018-08-09T04:32:44.147Z,1080.00
2018-08-09T04:33:44.309Z,1120.00
2018-08-09T04:35:44.339Z,1200.00
2018-08-09T04:36:45.240Z,1232.00
2018-08-09T04:37:45.567Z,1272.00
2018-08-09T04:38:46.183Z,1312.00
2018-08-09T04:41:51.612Z,1496.00
2018-08-09T04:43:54.415Z,1628.00
2018-08-09T04:44:50.227Z,1688.00
2018-08-09T04:45:52.450Z,1748.00
2018-08-09T04:48:19.739Z,1808.00
2018-08-09T04:49:53.079Z,1788.00
2018-08-09T04:50:54.869Z,1796.00
2018-08-09T04:53:31.563Z,1892.00
2018-08-09T04:54:41.622Z,1956.00
2018-08-09T04:55:34.139Z,2024.00
2018-08-09T04:56:32.920Z,2100.00
2018-08-09T04:57:32.241Z,2176.00
2018-08-09T04:58:34.210Z,2248.00
2018-08-09T04:59:32.896Z,2296.00
2018-08-09T05:00:33.373Z,2320.00
2018-08-09T05:01:34.763Z,2336.00
2018-08-09T05:03:33.281Z,2368.00
2018-08-09T05:04:33.597Z,2424.00
2018-08-09T05:05:34.390Z,2496.00
2018-08-09T05:06:37.282Z,2568.00
2018-08-09T05:08:35.717Z,2640.00
2018-08-09T05:08:57.954Z,2716.00
2018-08-09T05:09:34.637Z,2792.00
2018-08-09T05:10:35.185Z,2836.00
2018-08-09T05:11:34.955Z,2856.00
2018-08-09T05:12:35.287Z,2856.00
2018-08-09T05:13:35.412Z,2840.00
2018-08-09T05:14:35.603Z,2824.00
2018-08-09T05:15:35.918Z,2820.00
2018-08-09T05:16:35.855Z,2824.00
2018-08-09T05:17:36.205Z,2852.00
2018-08-09T05:18:36.501Z,2900.00
2018-08-09T05:19:36.579Z,2964.00
2018-08-09T05:20:36.619Z,3028.00
2018-08-09T05:21:36.891Z,3088.00
2018-08-09T05:22:37.158Z,3144.00
2018-08-09T05:23:37.499Z,3228.00
2018-08-09T05:24:37.349Z,3356.00
2018-08-09T05:25:37.613Z,3520.00
2018-08-09T05:26:37.760Z,3712.00
2018-08-09T05:27:38.074Z,3888.00
2018-08-09T05:28:38.198Z,4040.00
2018-08-09T05:29:38.285Z,4192.00
2018-08-09T05:30:38.530Z,4328.00
2018-08-09T05:31:38.719Z,4372.00
2018-08-09T05:32:38.913Z,4412.00
2018-08-09T05:33:39.018Z,4476.00
2018-08-09T05:34:39.163Z,4524.00
2018-08-09T05:35:39.737Z,4564.00
2018-08-09T05:36:40.268Z,4568.00
2018-08-09T05:38:40.311Z,4684.00
2018-08-09T05:39:55.325Z,4736.00
2018-08-09T05:40:40.812Z,4756.00
2018-08-09T05:41:45.797Z,4768.00
2018-08-09T05:44:44.999Z,4620.00
2018-08-09T05:45:45.060Z,4560.00
2018-08-09T05:46:45.875Z,4508.00
2018-08-09T05:47:45.658Z,4444.00
2018-08-09T05:48:44.884Z,4372.00
2018-08-09T05:49:44.078Z,4296.00
2018-08-09T05:50:43.918Z,4204.00
2018-08-09T05:51:43.963Z,4124.00
2018-08-09T05:52:44.188Z,4028.00
2018-08-09T06:26:55.122Z,5624.00
2018-08-09T06:31:19.511Z,6172.00
2018-08-09T06:32:17.007Z,6144.00
2018-08-09T06:33:20.589Z,6072.00
2018-08-09T06:34:17.485Z,5888.00
2018-08-09T06:35:19.218Z,5804.00
2018-08-09T06:36:18.212Z,5780.00
2018-08-09T06:37:19.556Z,5808.00
2018-08-09T06:38:18.101Z,5904.00
2018-08-09T06:40:16.144Z,6320.00
2018-08-09T06:41:16.229Z,6544.00
2018-08-09T06:42:15.869Z,6764.00
2018-08-09T06:43:18.293Z,7040.00
2018-08-09T06:44:16.303Z,7428.00
2018-08-09T06:45:16.294Z,7708.00
2018-08-09T06:46:20.417Z,7568.00
2018-08-09T06:47:17.283Z,7628.00
2018-08-09T06:48:18.291Z,7676.00
2018-08-09T06:49:16.998Z,7716.00
2018-08-09T06:50:18.137Z,8112.00
2018-08-09T06:51:17.444Z,7588.00
2018-08-09T06:52:31.234Z,7444.00
2018-08-09T06:57:12.194Z,6292.00
2018-08-09T06:57:51.712Z,6784.00
2018-08-09T08:41:05.868Z,12128.00
2018-08-09T13:27:09.811Z,61248.00
2018-08-09T13:28:09.571Z,18720.00
2018-08-09T13:29:09.041Z,19552.00
2018-08-09T13:30:09.541Z,30880.00
2018-08-09T13:31:09.394Z,60832.00
2018-08-09T13:32:09.927Z,56256.00
2018-08-09T13:33:11.369Z,54368.00
2018-08-09T13:35:10.888Z,50400.00
2018-08-09T13:36:11.010Z,52448.00
2018-08-09T13:37:10.996Z,42752.00
2018-08-09T13:38:10.807Z,17152.00
2018-08-09T13:39:11.491Z,22464.00
2018-08-09T13:40:11.299Z,20608.00
2018-08-09T13:41:11.458Z,51072.00
2018-08-09T13:42:11.772Z,50624.00
2018-08-09T13:43:11.913Z,47040.00
2018-08-09T13:44:13.450Z,43520.00
2018-08-09T13:46:14.269Z,43104.00
2018-08-09T13:47:13.664Z,34432.00
2018-08-09T13:48:12.685Z,50432.00
2018-08-09T13:49:13.527Z,42112.00
2018-08-09T13:50:13.436Z,22304.00
2018-08-09T13:51:13.470Z,21248.00
2018-08-09T13:52:13.576Z,44640.00
2018-08-09T13:53:13.688Z,38368.00
2018-08-09T13:54:14.987Z,33312.00
2018-08-09T13:55:13.513Z,29824.00
2018-08-09T13:56:14.239Z,17280.00
2018-08-09T13:57:13.995Z,26336.00
2018-08-09T13:58:14.805Z,17024.00
2018-08-09T13:59:15.009Z,12540.00
2018-08-09T14:00:15.352Z,10348.00
2018-08-09T14:01:15.334Z,9612.00
2018-08-09T14:02:15.505Z,9540.00
2018-08-09T14:03:15.447Z,9752.00
2018-08-09T14:04:15.685Z,9756.00
2018-08-09T14:05:16.525Z,10696.00
2018-08-09T14:06:13.940Z,9856.00
2018-08-09T14:07:13.664Z,9336.00
2018-08-09T14:08:13.804Z,7936.00
2018-08-09T14:09:14.063Z,5760.00
2018-08-09T14:10:14.678Z,4824.00
2018-08-09T14:11:14.317Z,4712.00
2018-08-09T14:12:14.512Z,4992.00
2018-08-09T14:13:14.661Z,5364.00
2018-08-09T14:14:14.859Z,5532.00
2018-08-09T14:15:15.083Z,5728.00
2018-08-09T14:16:15.174Z,5944.00
2018-08-09T14:17:15.289Z,6068.00
2018-08-09T14:18:15.660Z,5992.00
2018-08-09T14:19:15.688Z,5748.00
2018-08-09T14:20:15.969Z,5848.00
2018-08-09T14:21:16.113Z,6396.00
2018-08-09T14:22:16.254Z,6880.00
2018-08-09T14:23:16.474Z,7144.00
2018-08-09T14:24:16.562Z,7492.00
2018-08-09T14:25:16.755Z,8204.00
2018-08-09T14:26:16.950Z,9244.00
2018-08-09T14:27:17.344Z,10068.00
2018-08-09T14:28:17.294Z,10124.00
2018-08-09T14:29:17.411Z,10564.00
2018-08-09T14:30:17.668Z,11336.00
2018-08-09T14:31:17.751Z,12412.00
2018-08-09T14:32:18.081Z,18816.00
2018-08-09T14:33:18.121Z,18176.00
2018-08-09T14:34:18.363Z,12676.00
2018-08-09T14:35:18.488Z,11564.00
2018-08-09T14:36:18.695Z,11336.00
2018-08-09T14:37:18.763Z,11892.00
2018-08-09T14:38:19.104Z,12584.00
2018-08-09T14:39:19.168Z,13108.00
2018-08-09T14:40:19.323Z,13328.00
2018-08-09T14:41:19.482Z,12720.00
2018-08-09T14:42:19.775Z,17312.00
2018-08-09T14:43:19.899Z,13408.00
2018-08-09T14:44:19.978Z,16544.00
2018-08-09T14:45:20.235Z,14264.00
2018-08-09T14:46:20.412Z,12776.00
2018-08-09T14:47:20.565Z,10048.00
2018-08-09T14:48:20.689Z,9044.00
2018-08-09T14:49:20.893Z,8292.00
2018-08-09T14:50:21.069Z,7580.00
2018-08-09T14:51:21.261Z,6692.00
2018-08-09T14:52:21.588Z,5368.00
2018-08-09T14:53:21.630Z,3564.00
2018-08-09T14:54:21.947Z,2244.00
2018-08-09T14:55:22.045Z,1468.00
2018-08-09T14:56:22.467Z,1044.00
2018-08-09T14:57:22.479Z,832.00
2018-08-09T14:58:22.533Z,668.00
2018-08-09T14:59:23.361Z,636.00
2018-08-09T15:00:23.216Z,648.00
2018-08-09T15:01:23.797Z,716.00
2018-08-09T15:02:23.313Z,856.00
2018-08-09T15:03:23.544Z,1080.00
2018-08-09T15:04:23.717Z,1348.00
2018-08-09T15:05:24.172Z,1752.00
2018-08-09T15:06:24.283Z,2328.00
2018-08-09T15:07:24.362Z,2984.00
2018-08-09T15:08:24.406Z,3508.00
2018-08-09T15:09:24.712Z,3680.00
2018-08-09T15:10:24.857Z,3184.00
2018-08-09T15:11:25.028Z,2480.00
2018-08-09T15:12:25.172Z,2096.00
2018-08-09T15:13:25.395Z,1916.00
2018-08-09T15:14:25.408Z,1852.00
2018-08-09T15:15:26.345Z,1888.00
2018-08-09T15:16:25.772Z,1844.00
2018-08-09T15:17:25.991Z,1656.00
2018-08-09T15:18:26.349Z,1440.00
2018-08-09T15:19:26.315Z,1240.00
2018-08-09T15:20:27.334Z,1220.00
2018-08-09T15:21:26.628Z,1256.00
2018-08-09T15:22:26.833Z,1224.00
2018-08-09T15:23:27.089Z,1164.00
2018-08-09T15:24:27.263Z,1124.00
2018-08-09T15:25:27.418Z,1136.00
2018-08-09T15:26:27.589Z,1152.00
2018-08-09T15:27:27.873Z,1104.00
2018-08-09T15:28:28.068Z,1060.00
2018-08-09T15:29:27.978Z,1060.00
2018-08-09T15:30:28.264Z,1152.00
2018-08-09T15:31:28.792Z,1176.00
2018-08-09T15:32:28.744Z,1064.00
2018-08-09T15:33:28.853Z,980.00
2018-08-09T15:34:29.056Z,960.00
2018-08-09T15:35:29.166Z,944.00
2018-08-09T15:36:29.554Z,896.00
2018-08-09T15:37:29.444Z,864.00
2018-08-09T15:38:29.647Z,824.00
2018-08-09T15:39:29.844Z,796.00
2018-08-09T15:40:30.051Z,776.00
2018-08-09T15:41:30.264Z,764.00
2018-08-09T15:42:30.454Z,768.00
2018-08-09T15:43:30.629Z,776.00
2018-08-09T15:44:30.903Z,792.00
2018-08-09T15:45:31.054Z,808.00
2018-08-09T15:46:31.179Z,820.00
2018-08-09T15:47:31.564Z,820.00
2018-08-09T15:48:31.575Z,800.00
2018-08-09T15:49:31.651Z,792.00
2018-08-09T15:50:31.854Z,788.00
2018-08-09T15:51:31.924Z,776.00
2018-08-09T15:52:32.397Z,772.00
2018-08-09T15:53:32.332Z,792.00
2018-08-09T15:54:32.622Z,836.00
2018-08-09T15:55:32.737Z,888.00
2018-08-09T15:56:32.878Z,948.00
2018-08-09T15:57:33.061Z,1032.00
2018-08-09T15:58:33.248Z,1128.00
2018-08-09T15:59:33.620Z,1252.00
2018-08-09T16:00:33.680Z,1400.00
2018-08-09T16:01:34.700Z,1572.00
2018-08-09T16:02:34.269Z,1768.00
2018-08-09T16:03:34.391Z,1956.00
2018-08-09T16:04:34.600Z,2164.00
2018-08-09T16:05:34.836Z,2396.00
2018-08-09T16:06:35.548Z,2588.00
2018-08-09T16:07:35.219Z,2708.00
2018-08-09T16:08:35.241Z,2824.00
2018-08-09T16:09:35.351Z,2964.00
2018-08-09T16:10:35.616Z,3100.00
2018-08-09T16:11:35.985Z,3116.00
2018-08-09T16:13:36.355Z,2900.00
2018-08-09T16:14:36.247Z,2684.00
2018-08-09T16:15:36.491Z,2520.00
2018-08-09T16:16:36.756Z,2444.00
2018-08-09T16:17:36.856Z,2420.00
2018-08-09T16:18:37.048Z,2428.00
2018-08-09T16:19:37.285Z,2540.00
2018-08-09T16:20:37.431Z,2688.00
2018-08-09T16:21:37.560Z,2816.00
2018-08-09T16:22:37.820Z,2868.00
2018-08-09T16:23:37.931Z,2840.00
2018-08-09T16:24:38.134Z,2752.00
2018-08-09T16:25:38.306Z,2648.00
2018-08-09T16:26:38.439Z,2556.00
2018-08-09T16:27:38.643Z,2516.00
2018-08-09T16:28:38.763Z,2484.00
2018-08-09T16:29:39.078Z,2488.00
2018-08-09T16:30:39.100Z,2528.00
2018-08-09T16:31:39.267Z,2568.00
2018-08-09T16:32:39.455Z,2616.00
2018-08-09T16:33:39.675Z,2620.00
2018-08-09T16:34:39.828Z,2580.00
2018-08-09T16:35:40.177Z,2632.00
2018-08-09T16:36:40.231Z,2720.00
2018-08-09T16:37:40.432Z,2752.00
2018-08-09T16:38:40.549Z,2692.00
2018-08-09T16:39:40.817Z,2600.00
2018-08-09T16:40:40.941Z,2476.00
2018-08-09T16:41:41.109Z,2308.00
2018-08-09T16:42:41.438Z,2112.00
2018-08-09T16:43:41.488Z,1932.00
2018-08-09T16:44:41.721Z,1808.00
2018-08-09T16:45:41.888Z,1740.00
2018-08-09T16:46:42.157Z,1716.00
2018-08-09T16:47:42.204Z,1756.00
2018-08-09T16:48:42.524Z,1876.00
2018-08-09T16:49:42.704Z,2052.00
2018-08-09T16:50:42.819Z,2280.00
2018-08-09T16:51:43.094Z,2556.00
2018-08-09T16:52:43.343Z,2900.00
2018-08-09T16:53:43.338Z,3356.00
2018-08-09T16:54:43.589Z,3872.00
2018-08-09T16:55:43.790Z,4324.00
2018-08-09T16:56:44.184Z,4652.00
2018-08-09T16:57:44.098Z,4932.00
2018-08-09T16:58:44.271Z,5108.00
2018-08-09T16:59:44.659Z,5200.00
2018-08-09T17:00:44.493Z,5248.00
2018-08-09T17:01:44.828Z,5204.00
2018-08-09T17:02:45.100Z,5044.00
2018-08-09T17:03:45.129Z,4916.00
2018-08-09T17:04:45.353Z,4860.00
2018-08-09T17:05:45.468Z,4796.00
2018-08-09T17:06:45.685Z,4696.00
2018-08-09T17:07:45.884Z,4640.00
2018-08-09T17:08:46.007Z,4484.00
2018-08-09T17:09:46.129Z,4320.00
2018-08-09T17:10:46.385Z,4144.00
2018-08-09T17:11:46.455Z,3940.00
2018-08-09T17:12:46.900Z,3836.00
2018-08-09T17:14:47.132Z,3592.00
2018-08-09T17:15:47.292Z,3600.00
2018-08-09T17:16:47.541Z,3656.00
2018-08-09T17:17:47.675Z,3788.00
2018-08-09T17:18:47.903Z,3908.00
2018-08-09T17:19:48.154Z,3944.00
2018-08-09T17:20:48.445Z,3920.00
2018-08-09T17:21:48.632Z,3852.00
2018-08-09T17:22:48.672Z,3724.00
2018-08-09T17:23:48.849Z,3620.00
2018-08-09T17:24:49.209Z,3492.00
2018-08-09T17:25:49.093Z,3380.00
2018-08-09T17:26:49.319Z,3280.00
2018-08-09T17:27:49.530Z,3192.00
2018-08-09T17:28:49.671Z,3104.00
2018-08-09T17:29:50.096Z,3084.00
2018-08-09T17:30:49.990Z,3080.00
2018-08-09T17:31:50.275Z,3064.00
2018-08-09T17:32:50.577Z,2980.00
2018-08-09T17:33:50.581Z,2908.00
2018-08-09T17:34:50.812Z,2896.00
2018-08-09T17:35:50.974Z,2888.00
2018-08-09T17:38:46.590Z,2824.00
2018-08-09T17:39:47.509Z,2808.00
2018-08-09T17:40:56.071Z,2760.00
2018-08-09T17:41:47.436Z,2688.00
2018-08-09T17:42:47.429Z,2608.00
2018-08-09T17:43:47.499Z,2536.00
2018-08-09T17:44:48.204Z,2464.00
2018-08-09T17:45:47.999Z,2416.00
2018-08-09T17:46:48.182Z,2400.00
2018-08-09T17:47:47.476Z,2380.00
2018-08-09T17:48:46.181Z,2304.00
2018-08-09T17:49:46.288Z,2220.00
2018-08-09T17:50:46.559Z,2180.00
2018-08-09T17:51:46.675Z,2088.00
2018-08-09T17:52:46.914Z,2032.00
2018-08-09T17:53:46.974Z,1988.00
2018-08-09T17:54:47.244Z,1924.00
2018-08-09T17:55:47.360Z,1884.00
2018-08-09T17:56:47.498Z,1820.00
2018-08-09T17:57:47.687Z,1756.00
2018-08-09T17:58:47.954Z,1676.00
2018-08-09T17:59:48.118Z,1620.00
2018-08-09T18:00:48.427Z,1576.00
2018-08-09T18:01:48.499Z,1512.00
2018-08-09T18:02:48.869Z,1460.00
2018-08-09T18:03:48.863Z,1408.00
2018-08-09T18:04:48.991Z,1364.00
2018-08-09T18:05:49.231Z,1328.00
2018-08-09T18:06:49.418Z,1316.00
2018-08-09T18:07:49.572Z,1324.00
2018-08-09T18:08:49.756Z,1280.00
2018-08-09T18:09:49.900Z,1284.00
2018-08-09T18:10:50.054Z,1332.00
2018-08-09T18:11:50.139Z,1344.00
2018-08-09T18:12:50.430Z,1356.00
2018-08-09T18:13:50.627Z,1352.00
2018-08-09T18:14:50.728Z,1360.00
2018-08-09T18:15:50.902Z,1352.00
2018-08-09T18:16:51.261Z,1332.00
2018-08-09T18:17:51.515Z,1328.00
2018-08-09T18:18:51.699Z,1308.00
2018-08-09T18:19:51.762Z,1292.00
2018-08-09T18:20:51.871Z,1256.00
2018-08-09T18:21:52.150Z,1212.00
2018-08-09T18:22:52.209Z,1168.00
2018-08-09T18:23:52.438Z,1120.00
2018-08-09T18:24:52.596Z,1076.00
2018-08-09T18:25:52.746Z,1040.00
2018-08-09T18:26:52.829Z,996.00
2018-08-09T18:27:53.077Z,960.00
2018-08-09T18:28:53.171Z,924.00
2018-08-09T18:29:53.471Z,888.00
2018-08-09T18:30:53.628Z,852.00
2018-08-09T18:31:53.821Z,816.00
2018-08-09T18:32:54.060Z,784.00
2018-08-09T18:33:54.171Z,744.00
2018-08-09T18:34:54.350Z,704.00
2018-08-09T18:35:54.386Z,660.00
2018-08-09T18:36:54.695Z,620.00
2018-08-09T18:37:54.802Z,580.00
2018-08-09T18:38:54.980Z,544.00
2018-08-09T18:39:55.254Z,508.00
2018-08-09T18:40:55.390Z,476.00
2018-08-09T18:41:55.745Z,444.00
2018-08-09T18:42:55.852Z,412.00
2018-08-09T18:43:55.903Z,384.00
2018-08-09T18:44:56.182Z,352.00
2018-08-09T18:45:56.338Z,320.00
2018-08-09T18:46:56.761Z,296.00
2018-08-09T18:47:57.238Z,272.00
2018-08-09T18:48:57.040Z,248.00
2018-08-09T18:49:57.208Z,224.00
2018-08-09T18:50:57.563Z,208.00
2018-08-09T18:51:57.569Z,188.00
2018-08-09T18:54:58.300Z,144.00
2018-08-09T18:55:58.343Z,136.00
2018-08-09T18:56:58.710Z,120.00
2018-08-09T19:01:29.664Z,68.00
2018-08-09T19:06:31.327Z,32.00
2018-08-09T19:07:30.174Z,28.00
2018-08-09T19:15:03.529Z,12.00
2018-08-09T19:16:46.613Z,8.00
2018-08-09T19:18:42.647Z,4.00
2018-08-09T19:40:07.537Z,0.00
2018-08-09T19:41:15.609Z,0.00
2018-08-09T19:43:18.078Z,0.00
2018-08-09T19:58:46.857Z,0.00
2018-08-09T20:24:15.317Z,0.00
2018-08-09T20:46:23.675Z,0.00
2018-08-09T21:01:42.380Z,0.00
2018-08-09T21:16:40.526Z,0.00
2018-08-09T21:17:37.130Z,0.00
2018-08-09T21:18:37.219Z,0.00
2018-08-09T21:19:37.836Z,0.00
2018-08-09T21:20:37.813Z,0.00
2018-08-09T21:21:37.820Z,0.00
2018-08-09T21:22:37.971Z,0.00
2018-08-09T21:23:38.193Z,0.00
2018-08-09T21:24:38.393Z,0.00
2018-08-09T21:25:38.534Z,0.00
2018-08-09T21:26:38.803Z,0.00
2018-08-09T21:27:38.893Z,0.00
2018-08-09T21:28:39.063Z,0.00
2018-08-09T21:29:39.239Z,0.00
2018-08-09T21:30:39.420Z,0.00
2018-08-09T21:31:39.549Z,0.00
2018-08-09T21:32:39.775Z,0.00
2018-08-09T21:33:39.910Z,0.00
2018-08-09T21:34:40.039Z,0.00
2018-08-09T21:35:40.154Z,0.00
2018-08-09T21:36:40.413Z,0.00
2018-08-09T21:37:40.489Z,0.00
2018-08-09T21:38:40.696Z,0.00
2018-08-09T21:39:40.903Z,0.00
2018-08-09T21:40:41.057Z,0.00
2018-08-09T21:41:41.189Z,0.00
2018-08-09T21:42:41.373Z,0.00
2018-08-09T21:43:41.582Z,0.00
2018-08-09T21:44:41.733Z,0.00
2018-08-09T21:45:41.919Z,0.00
2018-08-09T21:46:42.049Z,0.00
2018-08-09T21:47:42.236Z,0.00
2018-08-09T21:48:42.449Z,0.00
2018-08-09T21:49:42.822Z,0.00
